createdAt,value
2019-02-03T00:00:09.635Z,921.85
2019-02-03T00:01:10.458Z,921.86
2019-02-03T00:02:10.879Z,921.88
2019-02-03T00:03:11.856Z,921.83
2019-02-03T00:04:13.354Z,921.83
2019-02-03T00:05:13.569Z,921.83
2019-02-03T00:06:14.256Z,921.81
2019-02-03T00:07:15.516Z,921.84
2019-02-03T00:08:16.362Z,921.86
2019-02-03T00:09:17.877Z,921.85
2019-02-03T00:10:18.927Z,921.84
2019-02-03T00:11:20.070Z,921.79
2019-02-03T00:12:21.082Z,921.79
2019-02-03T00:13:22.014Z,921.71
2019-02-03T00:14:23.086Z,921.68
2019-02-03T00:15:23.777Z,921.69
2019-02-03T00:16:24.531Z,921.69
2019-02-03T00:17:25.818Z,921.67
2019-02-03T00:18:26.694Z,921.68
2019-02-03T00:19:28.118Z,921.7
2019-02-03T00:20:29.133Z,921.77
2019-02-03T00:21:30.117Z,921.84
2019-02-03T00:22:30.642Z,921.91
2019-02-03T00:23:31.613Z,921.95
2019-02-03T00:24:32.281Z,921.96
2019-02-03T00:25:32.486Z,921.93
2019-02-03T00:26:33.573Z,921.97
2019-02-03T00:27:34.294Z,921.99
2019-02-03T00:28:34.579Z,922.01
2019-02-03T00:29:35.274Z,922.03
2019-02-03T00:30:36.421Z,922.03
2019-02-03T00:31:36.817Z,922.01
2019-02-03T00:32:37.810Z,922
2019-02-03T00:33:38.668Z,921.96
2019-02-03T00:34:39.654Z,921.94
2019-02-03T00:35:40.649Z,921.89
2019-02-03T00:36:41.649Z,921.9
2019-02-03T00:37:42.627Z,921.89
2019-02-03T00:38:28.873Z,921.9
2019-02-03T00:39:30.185Z,921.92
2019-02-03T00:40:30.884Z,921.89
2019-02-03T00:41:31.572Z,921.88
2019-02-03T00:42:32.011Z,921.84
2019-02-03T00:43:32.984Z,921.82
2019-02-03T00:44:33.966Z,921.8
2019-02-03T00:45:34.681Z,921.82
2019-02-03T00:46:35.480Z,921.84
2019-02-03T00:47:35.891Z,921.92
2019-02-03T00:48:36.933Z,921.92
2019-02-03T00:49:37.865Z,921.97
2019-02-03T00:50:38.945Z,922.01
2019-02-03T00:51:40.224Z,922.03
2019-02-03T00:52:40.651Z,922.01
2019-02-03T00:53:40.839Z,922.07
2019-02-03T00:54:41.096Z,922.07
2019-02-03T00:55:41.376Z,922.11
2019-02-03T00:56:42.363Z,922.12
2019-02-03T00:57:43.649Z,922.13
2019-02-03T00:58:43.878Z,922.16
2019-02-03T00:59:45.031Z,922.14
2019-02-03T01:00:45.729Z,922.19
2019-02-03T01:01:46.490Z,922.18
2019-02-03T01:02:47.737Z,922.19
2019-02-03T01:03:48.593Z,922.26
2019-02-03T01:04:49.115Z,922.28
2019-02-03T01:05:50.279Z,922.33
2019-02-03T01:06:51.052Z,922.35
2019-02-03T01:07:52.105Z,922.32
2019-02-03T01:08:53.104Z,922.31
2019-02-03T01:10:06.401Z,922.26
2019-02-03T01:11:06.916Z,922.21
2019-02-03T01:12:08.200Z,922.17
2019-02-03T01:13:08.580Z,922.13
2019-02-03T01:14:09.294Z,922.15
2019-02-03T01:15:10.292Z,922.15
2019-02-03T01:16:10.992Z,922.21
2019-02-03T01:17:11.698Z,922.28
2019-02-03T01:18:12.259Z,922.33
2019-02-03T01:19:12.606Z,922.37
2019-02-03T01:20:13.327Z,922.37
2019-02-03T01:21:13.612Z,922.34
2019-02-03T01:22:15.044Z,922.35
2019-02-03T01:23:15.768Z,922.36
2019-02-03T01:24:16.463Z,922.33
2019-02-03T01:25:16.896Z,922.31
2019-02-03T01:26:17.527Z,922.35
2019-02-03T01:27:18.011Z,922.3
2019-02-03T01:28:18.452Z,922.33
2019-02-03T01:29:18.746Z,922.35
2019-02-03T01:30:19.477Z,922.34
2019-02-03T01:31:19.966Z,922.4
2019-02-03T01:32:21.227Z,922.33
2019-02-03T01:33:21.675Z,922.36
2019-02-03T01:34:22.853Z,922.45
2019-02-03T01:35:24.156Z,922.44
2019-02-03T01:36:24.918Z,922.47
2019-02-03T01:37:25.620Z,922.5
2019-02-03T01:37:39.259Z,922.46
2019-02-03T01:37:50.028Z,922.51
2019-02-03T01:38:50.770Z,922.51
2019-02-03T01:39:51.707Z,922.51
2019-02-03T01:40:53.151Z,922.46
2019-02-03T01:41:53.591Z,922.47
2019-02-03T01:42:54.581Z,922.5
2019-02-03T01:43:55.727Z,922.49
2019-02-03T01:44:56.982Z,922.53
2019-02-03T01:45:57.396Z,922.55
2019-02-03T01:46:58.194Z,922.59
2019-02-03T01:47:59.134Z,922.58
2019-02-03T01:49:00.135Z,922.59
2019-02-03T01:50:00.462Z,922.55
2019-02-03T01:51:00.926Z,922.58
2019-02-03T01:52:01.651Z,922.55
2019-02-03T01:53:02.470Z,922.54
2019-02-03T01:54:03.578Z,922.56
2019-02-03T01:55:04.012Z,922.58
2019-02-03T01:56:04.435Z,922.61
2019-02-03T01:57:05.144Z,922.6
2019-02-03T01:58:05.742Z,922.67
2019-02-03T01:59:06.392Z,922.66
2019-02-03T02:00:07.096Z,922.67
2019-02-03T02:01:07.787Z,922.65
2019-02-03T02:02:08.929Z,922.68
2019-02-03T02:03:09.623Z,922.64
2019-02-03T02:04:10.323Z,922.65
2019-02-03T02:05:11.598Z,922.59
2019-02-03T02:06:12.627Z,922.6
2019-02-03T02:07:13.285Z,922.59
2019-02-03T02:08:13.708Z,922.64
2019-02-03T02:09:14.273Z,922.62
2019-02-03T02:10:15.000Z,922.63
2019-02-03T02:11:15.451Z,922.64
2019-02-03T02:12:15.878Z,922.61
2019-02-03T02:13:16.439Z,922.6
2019-02-03T02:14:17.140Z,922.65
2019-02-03T02:15:18.112Z,922.64
2019-02-03T02:16:19.280Z,922.61
2019-02-03T02:17:20.102Z,922.59
2019-02-03T02:18:20.790Z,922.59
2019-02-03T02:19:21.751Z,922.63
2019-02-03T02:20:22.444Z,922.6
2019-02-03T02:21:23.166Z,922.64
2019-02-03T02:22:24.596Z,922.67
2019-02-03T02:23:25.133Z,922.67
2019-02-03T02:24:26.103Z,922.67
2019-02-03T02:25:26.592Z,922.68
2019-02-03T02:26:27.037Z,922.68
2019-02-03T02:27:27.312Z,922.66
2019-02-03T02:28:27.845Z,922.68
2019-02-03T02:29:28.171Z,922.66
2019-02-03T02:30:28.612Z,922.62
2019-02-03T02:31:29.089Z,922.65
2019-02-03T02:32:30.465Z,922.63
2019-02-03T02:33:31.360Z,922.63
2019-02-03T02:34:31.818Z,922.59
2019-02-03T02:35:32.538Z,922.64
2019-02-03T02:36:33.353Z,922.67
2019-02-03T02:37:34.063Z,922.67
2019-02-03T02:38:35.040Z,922.69
2019-02-03T02:39:35.810Z,922.71
2019-02-03T02:40:36.528Z,922.74
2019-02-03T02:41:38.194Z,922.76
2019-02-03T02:42:38.423Z,922.85
2019-02-03T02:43:39.280Z,922.85
2019-02-03T02:44:39.854Z,922.86
2019-02-03T02:45:40.394Z,922.88
2019-02-03T02:46:41.806Z,922.86
2019-02-03T02:47:42.888Z,922.94
2019-02-03T02:48:43.466Z,922.92
2019-02-03T02:49:43.782Z,922.89
2019-02-03T02:50:45.131Z,922.88
2019-02-03T02:51:45.817Z,922.9
2019-02-03T02:52:46.070Z,922.96
2019-02-03T02:53:46.561Z,922.97
2019-02-03T02:54:46.988Z,922.94
2019-02-03T02:55:47.431Z,922.98
2019-02-03T02:56:47.886Z,923
2019-02-03T02:57:48.873Z,923
2019-02-03T02:58:49.606Z,922.99
2019-02-03T02:59:50.208Z,922.94
2019-02-03T03:00:51.004Z,922.97
2019-02-03T03:01:51.849Z,922.98
2019-02-03T03:02:52.556Z,922.99
2019-02-03T03:03:52.844Z,922.99
2019-02-03T03:04:53.828Z,922.97
2019-02-03T03:05:54.276Z,922.99
2019-02-03T03:06:55.371Z,922.94
2019-02-03T03:07:56.249Z,922.93
2019-02-03T03:08:57.340Z,922.91
2019-02-03T03:09:57.592Z,922.9
2019-02-03T03:10:58.298Z,922.89
2019-02-03T03:11:59.004Z,922.9
2019-02-03T03:13:00.288Z,922.94
2019-02-03T03:14:00.992Z,922.94
2019-02-03T03:15:01.268Z,922.98
2019-02-03T03:16:02.273Z,922.97
2019-02-03T03:17:02.972Z,922.97
2019-02-03T03:18:04.116Z,923.01
2019-02-03T03:19:05.179Z,923.03
2019-02-03T03:20:06.084Z,923.05
2019-02-03T03:21:06.810Z,923.06
2019-02-03T03:22:07.851Z,923.07
2019-02-03T03:23:08.116Z,923.1
2019-02-03T03:24:08.387Z,923.1
2019-02-03T03:25:09.087Z,923.11
2019-02-03T03:26:09.637Z,923.1
2019-02-03T03:27:10.360Z,923.12
2019-02-03T03:28:10.948Z,923.13
2019-02-03T03:29:12.091Z,923.18
2019-02-03T03:30:13.443Z,923.15
2019-02-03T03:31:14.138Z,923.18
2019-02-03T03:32:15.550Z,923.19
2019-02-03T03:33:16.592Z,923.22
2019-02-03T03:34:17.238Z,923.22
2019-02-03T03:35:18.640Z,923.21
2019-02-03T03:36:19.702Z,923.22
2019-02-03T03:37:20.423Z,923.21
2019-02-03T03:38:33.910Z,923.2
2019-02-03T03:39:35.049Z,923.21
2019-02-03T03:40:35.760Z,923.21
2019-02-03T03:41:36.929Z,923.19
2019-02-03T03:42:37.633Z,923.22
2019-02-03T03:43:38.327Z,923.16
2019-02-03T03:44:39.039Z,923.17
2019-02-03T03:45:39.738Z,923.14
2019-02-03T03:46:40.607Z,923.17
2019-02-03T03:47:41.371Z,923.14
2019-02-03T03:48:42.086Z,923.17
2019-02-03T03:49:42.824Z,923.16
2019-02-03T03:50:43.906Z,923.15
2019-02-03T03:51:45.135Z,923.11
2019-02-03T03:52:45.559Z,923.14
2019-02-03T03:53:45.875Z,923.14
2019-02-03T03:54:46.320Z,923.11
2019-02-03T03:55:47.338Z,923.12
2019-02-03T03:56:47.803Z,923.18
2019-02-03T03:57:49.078Z,923.15
2019-02-03T03:58:49.656Z,923.13
2019-02-03T03:59:50.349Z,923.2
2019-02-03T04:00:50.902Z,923.25
2019-02-03T04:01:51.682Z,923.29
2019-02-03T04:02:52.112Z,923.32
2019-02-03T04:03:53.249Z,923.39
2019-02-03T04:04:54.920Z,923.44
2019-02-03T04:05:55.633Z,923.42
2019-02-03T04:06:56.486Z,923.41
2019-02-03T04:07:57.794Z,923.38
2019-02-03T04:08:58.788Z,923.37
2019-02-03T04:09:59.147Z,923.34
2019-02-03T04:11:00.098Z,923.39
2019-02-03T04:12:01.113Z,923.42
2019-02-03T04:13:02.165Z,923.47
2019-02-03T04:14:02.703Z,923.5
2019-02-03T04:15:03.300Z,923.52
2019-02-03T04:16:04.199Z,923.58
2019-02-03T04:17:04.965Z,923.6
2019-02-03T04:18:05.396Z,923.64
2019-02-03T04:19:05.897Z,923.64
2019-02-03T04:20:06.683Z,923.68
2019-02-03T04:21:07.865Z,923.65
2019-02-03T04:22:08.325Z,923.65
2019-02-03T04:23:08.793Z,923.7
2019-02-03T04:24:09.098Z,923.71
2019-02-03T04:25:10.384Z,923.73
2019-02-03T04:26:11.368Z,923.72
2019-02-03T04:27:12.763Z,923.73
2019-02-03T04:28:13.485Z,923.76
2019-02-03T04:29:14.595Z,923.82
2019-02-03T04:30:15.731Z,923.8
2019-02-03T04:31:16.012Z,923.83
2019-02-03T04:32:17.012Z,923.88
2019-02-03T04:33:17.454Z,923.91
2019-02-03T04:34:18.449Z,923.92
2019-02-03T04:35:19.064Z,923.94
2019-02-03T04:36:19.475Z,923.99
2019-02-03T04:37:19.841Z,924.06
2019-02-03T04:38:20.835Z,924.02
2019-02-03T04:39:21.573Z,924.02
2019-02-03T04:40:22.583Z,924.05
2019-02-03T04:41:23.623Z,924.08
2019-02-03T04:42:24.947Z,924.05
2019-02-03T04:43:25.675Z,924.05
2019-02-03T04:44:26.242Z,924.04
2019-02-03T04:45:26.661Z,924.12
2019-02-03T04:46:27.705Z,924.16
2019-02-03T04:47:28.423Z,924.16
2019-02-03T04:48:29.408Z,924.18
2019-02-03T04:49:30.425Z,924.16
2019-02-03T04:50:30.989Z,924.16
2019-02-03T04:51:31.181Z,924.16
2019-02-03T04:52:31.894Z,924.15
2019-02-03T04:53:32.935Z,924.19
2019-02-03T04:54:33.521Z,924.15
2019-02-03T04:55:34.507Z,924.21
2019-02-03T04:56:35.541Z,924.21
2019-02-03T04:57:36.092Z,924.21
2019-02-03T04:58:37.416Z,924.23
2019-02-03T04:59:37.842Z,924.22
2019-02-03T05:00:38.544Z,924.24
2019-02-03T05:01:39.266Z,924.26
2019-02-03T05:02:40.039Z,924.26
2019-02-03T05:03:40.855Z,924.28
2019-02-03T05:04:42.058Z,924.31
2019-02-03T05:05:42.483Z,924.3
2019-02-03T05:06:43.757Z,924.32
2019-02-03T05:07:44.558Z,924.3
2019-02-03T05:08:45.734Z,924.3
2019-02-03T05:09:46.828Z,924.29
2019-02-03T05:10:47.548Z,924.31
2019-02-03T05:11:47.980Z,924.34
2019-02-03T05:12:48.591Z,924.37
2019-02-03T05:13:49.309Z,924.44
2019-02-03T05:14:50.573Z,924.44
2019-02-03T05:15:51.019Z,924.49
2019-02-03T05:16:52.080Z,924.51
2019-02-03T05:17:53.103Z,924.52
2019-02-03T05:18:54.027Z,924.57
2019-02-03T05:19:54.798Z,924.59
2019-02-03T05:20:56.233Z,924.61
2019-02-03T05:21:57.240Z,924.62
2019-02-03T05:22:58.402Z,924.63
2019-02-03T05:23:59.674Z,924.63
2019-02-03T05:25:00.461Z,924.64
2019-02-03T05:26:01.943Z,924.64
2019-02-03T05:27:03.009Z,924.68
2019-02-03T05:28:04.276Z,924.67
2019-02-03T05:29:05.261Z,924.63
2019-02-03T05:30:05.974Z,924.66
2019-02-03T05:31:06.874Z,924.66
2019-02-03T05:32:08.160Z,924.68
2019-02-03T05:33:08.888Z,924.66
2019-02-03T05:34:09.611Z,924.69
2019-02-03T05:35:10.518Z,924.72
2019-02-03T05:36:11.140Z,924.73
2019-02-03T05:37:11.590Z,924.72
2019-02-03T05:38:12.644Z,924.72
2019-02-03T05:39:25.682Z,924.75
2019-02-03T05:40:26.518Z,924.77
2019-02-03T05:41:27.808Z,924.74
2019-02-03T05:42:28.312Z,924.77
2019-02-03T05:43:29.311Z,924.79
2019-02-03T05:44:30.291Z,924.77
2019-02-03T05:45:31.005Z,924.75
2019-02-03T05:46:31.971Z,924.76
2019-02-03T05:47:32.584Z,924.74
2019-02-03T05:48:33.577Z,924.76
2019-02-03T05:49:34.116Z,924.76
2019-02-03T05:50:34.811Z,924.7
2019-02-03T05:51:35.790Z,924.76
2019-02-03T05:52:36.931Z,924.75
2019-02-03T05:53:37.640Z,924.78
2019-02-03T05:54:38.224Z,924.8
2019-02-03T05:55:39.052Z,924.82
2019-02-03T05:56:40.052Z,924.83
2019-02-03T05:57:41.157Z,924.88
2019-02-03T05:58:42.138Z,924.89
2019-02-03T05:59:42.651Z,924.9
2019-02-03T06:00:43.593Z,924.92
2019-02-03T06:01:44.307Z,924.92
2019-02-03T06:02:45.034Z,924.94
2019-02-03T06:03:45.504Z,924.99
2019-02-03T06:04:46.512Z,924.93
2019-02-03T06:05:47.582Z,924.97
2019-02-03T06:06:48.554Z,925.02
2019-02-03T06:07:48.790Z,924.95
2019-02-03T06:08:49.352Z,924.99
2019-02-03T06:09:50.478Z,925.03
2019-02-03T06:10:51.204Z,925.05
2019-02-03T06:11:51.907Z,925.04
2019-02-03T06:12:52.889Z,925.06
2019-02-03T06:13:54.561Z,925.06
2019-02-03T06:14:55.767Z,925.05
2019-02-03T06:15:56.591Z,925.06
2019-02-03T06:16:57.580Z,925.06
2019-02-03T06:17:58.030Z,925.13
2019-02-03T06:18:59.042Z,925.14
2019-02-03T06:20:00.025Z,925.11
2019-02-03T06:21:01.114Z,925.15
2019-02-03T06:22:02.113Z,925.16
2019-02-03T06:23:02.837Z,925.18
2019-02-03T06:24:03.173Z,925.21
2019-02-03T06:25:03.722Z,925.21
2019-02-03T06:26:04.589Z,925.18
2019-02-03T06:27:05.566Z,925.21
2019-02-03T06:28:06.831Z,925.22
2019-02-03T06:29:07.677Z,925.27
2019-02-03T06:30:08.681Z,925.32
2019-02-03T06:31:09.244Z,925.27
2019-02-03T06:32:09.989Z,925.29
2019-02-03T06:33:10.960Z,925.31
2019-02-03T06:34:12.128Z,925.35
2019-02-03T06:35:13.165Z,925.33
2019-02-03T06:36:14.144Z,925.36
2019-02-03T06:37:15.126Z,925.38
2019-02-03T06:38:15.900Z,925.44
2019-02-03T06:39:16.604Z,925.43
2019-02-03T06:40:17.584Z,925.44
2019-02-03T06:41:19.025Z,925.47
2019-02-03T06:42:19.950Z,925.45
2019-02-03T06:43:21.243Z,925.46
2019-02-03T06:44:21.532Z,925.48
2019-02-03T06:45:21.963Z,925.49
2019-02-03T06:46:22.391Z,925.51
2019-02-03T06:47:23.096Z,925.55
2019-02-03T06:48:24.083Z,925.55
2019-02-03T06:49:25.346Z,925.58
2019-02-03T06:50:26.563Z,925.59
2019-02-03T06:51:26.945Z,925.66
2019-02-03T06:52:27.939Z,925.67
2019-02-03T06:53:28.367Z,925.72
2019-02-03T06:54:29.802Z,925.75
2019-02-03T06:55:30.946Z,925.76
2019-02-03T06:56:31.452Z,925.84
2019-02-03T06:57:32.310Z,925.78
2019-02-03T06:58:33.023Z,925.8
2019-02-03T06:59:34.081Z,925.82
2019-02-03T06:59:50.713Z,925.82
2019-02-03T06:59:57.862Z,925.84
2019-02-03T07:00:58.344Z,925.86
2019-02-03T07:01:59.491Z,925.88
2019-02-03T07:03:00.072Z,925.88
2019-02-03T07:04:01.285Z,925.94
2019-02-03T07:05:01.733Z,925.95
2019-02-03T07:06:02.610Z,925.95
2019-02-03T07:07:03.606Z,925.98
2019-02-03T07:08:04.045Z,926.04
2019-02-03T07:09:04.553Z,926.05
2019-02-03T07:10:05.703Z,926.06
2019-02-03T07:11:06.852Z,926.09
2019-02-03T07:12:07.591Z,926.11
2019-02-03T07:13:07.916Z,926.14
2019-02-03T07:14:08.340Z,926.13
2019-02-03T07:15:09.063Z,926.19
2019-02-03T07:16:10.424Z,926.21
2019-02-03T07:17:10.848Z,926.23
2019-02-03T07:18:11.388Z,926.21
2019-02-03T07:19:11.821Z,926.27
2019-02-03T07:20:12.339Z,926.27
2019-02-03T07:21:13.219Z,926.24
2019-02-03T07:22:13.897Z,926.3
2019-02-03T07:23:14.595Z,926.36
2019-02-03T07:24:16.042Z,926.37
2019-02-03T07:25:17.193Z,926.41
2019-02-03T07:26:17.630Z,926.4
2019-02-03T07:27:18.134Z,926.44
2019-02-03T07:28:18.847Z,926.46
2019-02-03T07:29:20.085Z,926.5
2019-02-03T07:30:20.441Z,926.5
2019-02-03T07:31:20.728Z,926.52
2019-02-03T07:32:21.439Z,926.55
2019-02-03T07:33:21.986Z,926.61
2019-02-03T07:34:23.111Z,926.62
2019-02-03T07:35:23.834Z,926.61
2019-02-03T07:36:24.823Z,926.66
2019-02-03T07:37:25.561Z,926.62
2019-02-03T07:38:26.433Z,926.67
2019-02-03T07:39:26.960Z,926.71
2019-02-03T07:40:27.699Z,926.71
2019-02-03T07:41:27.937Z,926.71
2019-02-03T07:42:28.370Z,926.74
2019-02-03T07:43:29.498Z,926.73
2019-02-03T07:44:30.198Z,926.78
2019-02-03T07:45:31.340Z,926.81
2019-02-03T07:46:32.058Z,926.78
2019-02-03T07:47:33.128Z,926.84
2019-02-03T07:48:33.789Z,926.84
2019-02-03T07:49:33.972Z,926.82
2019-02-03T07:50:34.679Z,926.82
2019-02-03T07:51:35.308Z,926.9
2019-02-03T07:52:35.786Z,926.91
2019-02-03T07:53:36.937Z,926.93
2019-02-03T07:54:37.367Z,926.91
2019-02-03T07:55:37.950Z,926.98
2019-02-03T07:56:38.961Z,926.97
2019-02-03T07:57:39.922Z,927.03
2019-02-03T07:58:40.974Z,926.99
2019-02-03T07:59:41.535Z,927.08
2019-02-03T08:00:41.830Z,927.07
2019-02-03T08:01:42.699Z,927.09
2019-02-03T08:02:43.710Z,927.11
2019-02-03T08:03:44.232Z,927.08
2019-02-03T08:04:45.471Z,927.17
2019-02-03T08:05:46.649Z,927.21
2019-02-03T08:06:47.185Z,927.22
2019-02-03T08:07:48.184Z,927.22
2019-02-03T08:09:03.041Z,927.24
2019-02-03T08:10:03.615Z,927.27
2019-02-03T08:11:05.385Z,927.27
2019-02-03T08:12:06.107Z,927.31
2019-02-03T08:13:07.097Z,927.3
2019-02-03T08:14:08.247Z,927.37
2019-02-03T08:15:08.962Z,927.36
2019-02-03T08:16:09.721Z,927.39
2019-02-03T08:17:10.549Z,927.47
2019-02-03T08:18:11.015Z,927.44
2019-02-03T08:19:11.578Z,927.47
2019-02-03T08:20:12.447Z,927.48
2019-02-03T08:21:13.155Z,927.52
2019-02-03T08:22:13.997Z,927.54
2019-02-03T08:23:14.547Z,927.55
2019-02-03T08:24:15.033Z,927.56
2019-02-03T08:25:15.706Z,927.59
2019-02-03T08:26:16.149Z,927.64
2019-02-03T08:27:17.135Z,927.65
2019-02-03T08:28:17.851Z,927.65
2019-02-03T08:29:18.547Z,927.7
2019-02-03T08:30:19.424Z,927.72
2019-02-03T08:31:20.181Z,927.72
2019-02-03T08:32:21.183Z,927.75
2019-02-03T08:33:22.344Z,927.78
2019-02-03T08:34:23.065Z,927.77
2019-02-03T08:35:23.648Z,927.84
2019-02-03T08:36:24.674Z,927.85
2019-02-03T08:37:25.676Z,927.9
2019-02-03T08:38:26.218Z,927.91
2019-02-03T08:39:27.189Z,927.94
2019-02-03T08:40:41.928Z,927.98
2019-02-03T08:41:42.780Z,927.97
2019-02-03T08:42:43.527Z,928.01
2019-02-03T08:43:44.389Z,928.05
2019-02-03T08:44:46.148Z,928.04
2019-02-03T08:45:47.234Z,928.04
2019-02-03T08:46:47.951Z,928.1
2019-02-03T08:47:49.052Z,928.15
2019-02-03T08:48:49.757Z,928.11
2019-02-03T08:49:50.737Z,928.17
2019-02-03T08:50:51.453Z,928.18
2019-02-03T08:51:51.888Z,928.19
2019-02-03T08:52:52.602Z,928.21
2019-02-03T08:53:53.435Z,928.26
2019-02-03T08:54:59.132Z,928.25
2019-02-03T08:55:05.748Z,928.24
2019-02-03T08:56:05.946Z,928.32
2019-02-03T08:57:06.194Z,928.33
2019-02-03T08:58:06.732Z,928.34
2019-02-03T08:59:07.707Z,928.34
2019-02-03T09:00:08.423Z,928.37
2019-02-03T09:01:08.849Z,928.4
2019-02-03T09:02:09.419Z,928.42
2019-02-03T09:03:10.133Z,928.43
2019-02-03T09:04:11.695Z,928.41
2019-02-03T09:05:12.586Z,928.43
2019-02-03T09:06:13.132Z,928.5
2019-02-03T09:07:14.119Z,928.5
2019-02-03T09:08:15.137Z,928.53
2019-02-03T09:09:15.608Z,928.52
2019-02-03T09:10:16.324Z,928.54
2019-02-03T09:11:17.477Z,928.57
2019-02-03T09:12:17.751Z,928.6
2019-02-03T09:13:18.850Z,928.62
2019-02-03T09:14:19.053Z,928.64
2019-02-03T09:15:20.394Z,928.64
2019-02-03T09:16:21.160Z,928.66
2019-02-03T09:17:21.592Z,928.7
2019-02-03T09:18:23.441Z,928.69
2019-02-03T09:18:35.582Z,928.72
2019-02-03T09:18:47.899Z,928.69
2019-02-03T09:19:00.072Z,928.69
2019-02-03T09:19:12.292Z,928.71
2019-02-03T09:19:24.891Z,928.7
2019-02-03T09:19:36.507Z,928.71
2019-02-03T09:19:48.053Z,928.65
2019-02-03T09:20:48.941Z,928.77
2019-02-03T09:21:50.077Z,928.73
2019-02-03T09:22:51.217Z,928.79
2019-02-03T09:23:51.921Z,928.83
2019-02-03T09:24:52.747Z,928.83
2019-02-03T09:25:53.459Z,928.87
2019-02-03T09:26:54.664Z,928.88
2019-02-03T09:27:55.087Z,928.93
2019-02-03T09:28:55.384Z,928.94
2019-02-03T09:29:55.605Z,928.93
2019-02-03T09:30:56.762Z,928.99
2019-02-03T09:31:57.297Z,929.01
2019-02-03T09:32:57.739Z,929.02
2019-02-03T09:33:58.171Z,929.05
2019-02-03T09:34:59.299Z,929.05
2019-02-03T09:35:59.846Z,929.07
2019-02-03T09:37:00.559Z,929.13
2019-02-03T09:38:00.812Z,929.17
2019-02-03T09:39:01.526Z,929.18
2019-02-03T09:40:02.821Z,929.19
2019-02-03T09:41:04.094Z,929.18
2019-02-03T09:42:04.816Z,929.18
2019-02-03T09:43:05.975Z,929.19
2019-02-03T09:44:06.505Z,929.21
2019-02-03T09:45:06.848Z,929.21
2019-02-03T09:46:07.270Z,929.24
2019-02-03T09:47:07.709Z,929.29
2019-02-03T09:48:07.992Z,929.25
2019-02-03T09:49:09.440Z,929.3
2019-02-03T09:50:11.261Z,929.3
2019-02-03T09:50:22.558Z,929.31
2019-02-03T09:50:34.731Z,929.3
2019-02-03T09:51:36.815Z,929.33
2019-02-03T09:51:48.659Z,929.33
2019-02-03T09:52:00.064Z,929.31
2019-02-03T09:53:00.660Z,929.37
2019-02-03T09:54:01.655Z,929.38
2019-02-03T09:55:02.639Z,929.41
2019-02-03T09:56:03.625Z,929.47
2019-02-03T09:57:04.085Z,929.48
2019-02-03T09:58:05.092Z,929.5
2019-02-03T09:59:06.094Z,929.57
2019-02-03T10:00:06.367Z,929.63
2019-02-03T10:01:07.141Z,929.6
2019-02-03T10:02:07.939Z,929.56
2019-02-03T10:03:08.350Z,929.62
2019-02-03T10:04:09.076Z,929.68
2019-02-03T10:05:10.233Z,929.69
2019-02-03T10:06:11.380Z,929.69
2019-02-03T10:07:12.544Z,929.74
2019-02-03T10:08:16.275Z,929.74
2019-02-03T10:09:16.809Z,929.75
2019-02-03T10:10:17.070Z,929.78
2019-02-03T10:11:17.772Z,929.7
2019-02-03T10:12:18.954Z,929.75
2019-02-03T10:13:19.631Z,929.78
2019-02-03T10:14:20.338Z,929.76
2019-02-03T10:15:21.501Z,929.81
2019-02-03T10:16:22.220Z,929.77
2019-02-03T10:17:23.637Z,929.78
2019-02-03T10:18:24.020Z,929.79
2019-02-03T10:19:25.134Z,929.78
2019-02-03T10:20:25.692Z,929.84
2019-02-03T10:21:26.690Z,929.87
2019-02-03T10:22:27.861Z,929.88
2019-02-03T10:23:28.984Z,929.9
2019-02-03T10:24:29.434Z,929.94
2019-02-03T10:24:42.354Z,929.94
2019-02-03T10:25:41.770Z,929.93
2019-02-03T10:26:42.504Z,929.89
2019-02-03T10:27:43.303Z,929.94
2019-02-03T10:28:47.332Z,929.95
2019-02-03T10:29:48.028Z,929.92
2019-02-03T10:30:48.953Z,929.96
2019-02-03T10:31:49.733Z,929.95
2019-02-03T10:32:50.434Z,929.96
2019-02-03T10:33:50.723Z,929.95
2019-02-03T10:34:51.151Z,929.98
2019-02-03T10:35:51.996Z,929.96
2019-02-03T10:36:52.716Z,929.98
2019-02-03T10:37:53.503Z,930.01
2019-02-03T10:38:54.111Z,930.03
2019-02-03T10:39:54.822Z,930.04
2019-02-03T10:40:55.273Z,930.02
2019-02-03T10:41:55.715Z,930.03
2019-02-03T10:42:56.184Z,930.04
2019-02-03T10:43:57.219Z,930.05
2019-02-03T10:44:57.942Z,930.07
2019-02-03T10:45:59.094Z,930.08
2019-02-03T10:47:00.127Z,930.05
2019-02-03T10:48:00.916Z,930.08
2019-02-03T10:49:01.584Z,930.12
2019-02-03T10:50:02.210Z,930.16
2019-02-03T10:51:02.500Z,930.13
2019-02-03T10:52:03.425Z,930.15
2019-02-03T10:53:04.140Z,930.14
2019-02-03T10:54:04.851Z,930.22
2019-02-03T10:55:06.199Z,930.23
2019-02-03T10:56:06.529Z,930.28
2019-02-03T10:57:07.001Z,930.29
2019-02-03T10:58:07.339Z,930.24
2019-02-03T10:59:07.999Z,930.17
2019-02-03T11:00:20.770Z,930.19
2019-02-03T11:01:20.931Z,930.2
2019-02-03T11:02:21.675Z,930.2
2019-02-03T11:03:21.867Z,930.23
2019-02-03T11:04:22.088Z,930.26
2019-02-03T11:05:22.614Z,930.27
2019-02-03T11:06:23.449Z,930.29
2019-02-03T11:07:24.901Z,930.29
2019-02-03T11:08:25.894Z,930.31
2019-02-03T11:09:26.945Z,930.33
2019-02-03T11:10:27.569Z,930.35
2019-02-03T11:11:40.069Z,930.42
2019-02-03T11:12:40.280Z,930.37
2019-02-03T11:13:41.125Z,930.39
2019-02-03T11:14:41.895Z,930.42
2019-02-03T11:15:42.970Z,930.38
2019-02-03T11:16:43.564Z,930.45
2019-02-03T11:17:44.679Z,930.45
2019-02-03T11:18:45.798Z,930.47
2019-02-03T11:19:46.050Z,930.44
2019-02-03T11:20:46.982Z,930.52
2019-02-03T11:21:47.822Z,930.49
2019-02-03T11:22:48.425Z,930.5
2019-02-03T11:23:48.970Z,930.58
2019-02-03T11:24:49.249Z,930.56
2019-02-03T11:25:50.057Z,930.62
2019-02-03T11:26:50.766Z,930.59
2019-02-03T11:27:51.878Z,930.64
2019-02-03T11:28:52.972Z,930.68
2019-02-03T11:29:54.086Z,930.69
2019-02-03T11:30:55.458Z,930.7
2019-02-03T11:31:56.121Z,930.69
2019-02-03T11:33:09.620Z,930.71
2019-02-03T11:34:09.182Z,930.71
2019-02-03T11:35:09.897Z,930.69
2019-02-03T11:36:10.879Z,930.71
2019-02-03T11:37:11.646Z,930.75
2019-02-03T11:38:12.151Z,930.75
2019-02-03T11:39:12.428Z,930.76
2019-02-03T11:40:12.942Z,930.79
2019-02-03T11:41:13.581Z,930.78
2019-02-03T11:42:14.450Z,930.78
2019-02-03T11:43:14.868Z,930.81
2019-02-03T11:44:15.586Z,930.86
2019-02-03T11:45:16.357Z,930.83
2019-02-03T11:46:17.133Z,930.86
2019-02-03T11:47:18.167Z,930.87
2019-02-03T11:48:18.925Z,930.94
2019-02-03T11:49:19.839Z,930.9
2019-02-03T11:50:20.577Z,930.94
2019-02-03T11:51:20.977Z,930.97
2019-02-03T11:52:22.361Z,930.96
2019-02-03T11:53:23.101Z,930.99
2019-02-03T11:54:23.757Z,930.99
2019-02-03T11:55:24.648Z,930.99
2019-02-03T11:56:25.814Z,930.97
2019-02-03T11:57:26.821Z,931.05
2019-02-03T11:58:27.534Z,931.04
2019-02-03T11:59:28.040Z,931.02
2019-02-03T12:00:28.512Z,931.02
2019-02-03T12:01:29.780Z,931.01
2019-02-03T12:02:42.819Z,931.06
2019-02-03T12:03:43.692Z,931.08
2019-02-03T12:04:44.108Z,931.15
2019-02-03T12:05:45.549Z,931.16
2019-02-03T12:06:45.975Z,931.16
2019-02-03T12:07:47.099Z,931.16
2019-02-03T12:08:47.925Z,931.15
2019-02-03T12:09:48.360Z,931.2
2019-02-03T12:10:49.099Z,931.22
2019-02-03T12:12:03.899Z,931.24
2019-02-03T12:13:05.077Z,931.26
2019-02-03T12:14:05.457Z,931.26
2019-02-03T12:15:06.452Z,931.24
2019-02-03T12:16:06.891Z,931.36
2019-02-03T12:17:07.672Z,931.34
2019-02-03T12:18:08.688Z,931.33
2019-02-03T12:19:09.149Z,931.35
2019-02-03T12:20:09.593Z,931.37
2019-02-03T12:21:10.758Z,931.37
2019-02-03T12:22:12.404Z,931.38
2019-02-03T12:23:13.154Z,931.41
2019-02-03T12:24:13.896Z,931.44
2019-02-03T12:25:14.598Z,931.44
2019-02-03T12:26:15.038Z,931.44
2019-02-03T12:27:16.017Z,931.46
2019-02-03T12:28:17.173Z,931.5